This is the latest recevied weather packets stored in our database for station/object VE1AIC-4. If no packets are shown the sender has not sent any weather packets the latest 10 day(s).
| Time | Temp. | Humidity | Pressure | Rain* | Wind** | Luminosity | Snow |
|---|---|---|---|---|---|---|---|
| 1777740064 | 13.89° C | 53% | 1011.2 hPa | 0 mm | - | 727 W/m² | - |
| 1777738860 | 13.89° C | 57% | 1011.1 hPa | 0 mm | - | 735 W/m² | - |
| 1777737621 | 13.89° C | 57% | 1011.1 hPa | 0 mm | - | 737 W/m² | - |
| 1777735857 | 13.33° C | 60% | 1011 hPa | 0 mm | - | 730 W/m² | - |
| 1777734645 | 12.78° C | 66% | 1011.1 hPa | 0 mm | - | 727 W/m² | - |
| 1777732226 | 12.22° C | 70% | 1010.9 hPa | 0 mm | - | 682 W/m² | - |
| 1777731638 | 11.67° C | 73% | 1010.8 hPa | 0 mm | - | 676 W/m² | - |
| 1777725623 | 8.89° C | 80% | 1010.1 hPa | 0 mm | - | 464 W/m² | - |
| 1777719619 | 6.11° C | 98% | 1008.9 hPa | 0 mm | - | 95 W/m² | - |
| 1777718431 | 5.56° C | 98% | 1008.8 hPa | 0 mm | - | 80 W/m² | - |
| 1777717843 | 5.56° C | 98% | 1008.8 hPa | 0 mm | - | 47 W/m² | - |
| 1777713739 | 6.11° C | 99% | 1007.6 hPa | 0 mm | - | 3 W/m² | - |
| 1777710653 | 6.11° C | 99% | 1006.9 hPa | 0 mm | - | 0 W/m² | - |
| 1777703447 | 7.78° C | 99% | 1005.6 hPa | 0 mm | - | 0 W/m² | - |
| 1777692712 | 7.22° C | 98% | 1004.5 hPa | 0.25 mm | - | 0 W/m² | - |
| 1777683049 | 8.33° C | 98% | 1003.8 hPa | 0.76 mm | - | 0 W/m² | - |
| 1777681252 | 8.33° C | 98% | 1003.8 hPa | 1.02 mm | - | 0 W/m² | - |
| 1777678225 | 8.89° C | 98% | 1003.3 hPa | 1.52 mm | - | 0 W/m² | - |
| 1777675869 | 8.89° C | 98% | 1002.9 hPa | 2.29 mm | - | 4 W/m² | - |
| 1777675218 | 8.89° C | 98% | 1003.1 hPa | 2.29 mm | - | 5 W/m² | - |
| 1777674630 | 9.44° C | 98% | 1003 hPa | 2.03 mm | - | 7 W/m² | - |
| 1777674135 | 8.89° C | 98% | 1003 hPa | 2.03 mm | - | 13 W/m² | - |
| 1777669824 | 8.89° C | 98% | 1003.4 hPa | 6.86 mm | - | 27 W/m² | - |
| 1777665639 | 9.44° C | 98% | 1003.9 hPa | 5.59 mm | - | 40 W/m² | - |
| 1777665057 | 9.44° C | 98% | 1003.9 hPa | 4.57 mm | - | 41 W/m² | - |
* Rain latest hour (hover to see other rain measurements)
** Current wind speed in m/s (hover to see current wind gust speed)